Time;durP1;ratioP1;P1;durP2;ratioP2;P2;SDS_P1;SDS_P2;PMS_P1;PMS_P2;Temp;Humidity;BMP_temperature;BMP_pressure;BME280_temperature;BME280_humidity;BME280_pressure;Samples;Min_cycle;Max_cycle;Signal;HPM_P1;HPM_P2
2024/03/01 00:01:50;;;;;;;13.70;9.00;;;;;;;;;;5029418;28;20079;-54
2024/03/01 00:04:16;;;;;;;13.68;8.90;;;;;;;;;;5028451;28;20021;-49
2024/03/01 00:06:42;;;;;;;16.13;13.68;;;;;;;;;;5024908;28;20037;-53
2024/03/01 00:09:08;;;;;;;13.65;8.90;;;;;;;;;;5026439;28;20033;-54
2024/03/01 00:11:35;;;;;;;13.63;8.70;;;;;;;;;;5026456;28;20037;-49
2024/03/01 00:14:01;;;;;;;13.65;8.85;;;;;;;;;;5026003;28;20488;-52
2024/03/01 00:16:27;;;;;;;13.60;8.82;;;;;;;;;;5026853;28;20037;-51
2024/03/01 00:18:52;;;;;;;13.70;8.93;;;;;;;;;;5026892;28;20146;-56
2024/03/01 00:21:18;;;;;;;13.80;9.18;;;;;;;;;;5026693;28;20033;-50
2024/03/01 00:23:45;;;;;;;13.80;9.10;;;;;;;;;;5026208;28;20104;-51
2024/03/01 00:26:11;;;;;;;13.82;9.32;;;;;;;;;;5026964;28;20025;-49
2024/03/01 00:28:37;;;;;;;13.73;8.93;;;;;;;;;;5028320;28;20033;-53
2024/03/01 00:31:04;;;;;;;13.68;8.90;;;;;;;;;;5030172;28;20634;-53
2024/03/01 00:33:30;;;;;;;13.65;8.80;;;;;;;;;;5046042;22;20057;-58
2024/03/01 00:35:56;;;;;;;13.90;9.10;;;;;;;;;;5030151;28;20079;-55
2024/03/01 00:38:22;;;;;;;13.63;8.90;;;;;;;;;;5029236;28;20037;-53
2024/03/01 00:40:49;;;;;;;14.20;9.50;;;;;;;;;;5028215;28;20391;-55
2024/03/01 00:43:19;;;;;;;13.52;8.68;;;;;;;;;;5029314;28;20033;-55
2024/03/01 00:45:45;;;;;;;13.55;8.55;;;;;;;;;;5028800;28;20406;-51
2024/03/01 00:48:12;;;;;;;13.60;8.70;;;;;;;;;;5030059;28;20026;-54
2024/03/01 00:50:41;;;;;;;13.55;8.50;;;;;;;;;;5029258;28;20025;-58
2024/03/01 00:53:11;;;;;;;13.60;8.60;;;;;;;;;;5029799;28;20048;-53
2024/03/01 00:55:38;;;;;;;13.60;8.70;;;;;;;;;;5029382;28;20071;-55
2024/03/01 00:58:04;;;;;;;13.65;8.90;;;;;;;;;;5030778;28;20018;-52
2024/03/01 01:00:31;;;;;;;13.57;8.70;;;;;;;;;;5029336;28;20021;-52
2024/03/01 01:02:57;;;;;;;13.52;8.60;;;;;;;;;;5028697;28;20501;-54
2024/03/01 01:05:26;;;;;;;13.57;8.60;;;;;;;;;;5029539;28;20480;-56
2024/03/01 01:07:52;;;;;;;;;;;;;;;;;;5026959;28;20048;-51
2024/03/01 01:10:18;;;;;;;13.68;8.90;;;;;;;;;;5023845;28;19909;-55
2024/03/01 01:12:44;;;;;;;13.50;8.50;;;;;;;;;;5025903;28;20140;-51
2024/03/01 01:15:10;;;;;;;14.43;9.95;;;;;;;;;;5028835;28;20500;-53
2024/03/01 01:17:36;;;;;;;13.50;8.50;;;;;;;;;;5030206;28;20021;-52
2024/03/01 01:20:03;;;;;;;13.52;8.50;;;;;;;;;;5030276;28;20028;-53
2024/03/01 01:22:29;;;;;;;13.38;8.23;;;;;;;;;;5028198;28;20025;-57
2024/03/01 01:24:55;;;;;;;13.70;9.00;;;;;;;;;;5028853;28;20099;-58
2024/03/01 01:27:21;;;;;;;13.60;8.70;;;;;;;;;;5030229;28;20025;-57
2024/03/01 01:29:47;;;;;;;13.63;8.77;;;;;;;;;;5030010;28;20602;-56
2024/03/01 01:32:13;;;;;;;13.57;8.60;;;;;;;;;;5029098;28;20029;-56
2024/03/01 01:34:39;;;;;;;13.57;8.65;;;;;;;;;;5027688;28;20606;-56
2024/03/01 01:37:05;;;;;;;13.65;8.77;;;;;;;;;;5030115;28;20025;-53
2024/03/01 01:39:31;;;;;;;13.57;8.55;;;;;;;;;;5028881;28;20029;-52
2024/03/01 01:42:00;;;;;;;13.70;8.80;;;;;;;;;;5029717;28;20033;-53
2024/03/01 01:44:26;;;;;;;13.50;8.43;;;;;;;;;;5029818;28;20406;-60
2024/03/01 01:46:52;;;;;;;13.65;8.70;;;;;;;;;;5029165;28;20422;-55
2024/03/01 01:49:19;;;;;;;13.65;8.80;;;;;;;;;;5030666;28;20025;-56
2024/03/01 01:51:46;;;;;;;14.45;10.05;;;;;;;;;;5029597;28;20102;-55
2024/03/01 01:54:12;;;;;;;13.63;8.73;;;;;;;;;;5028090;28;20021;-54
2024/03/01 01:56:38;;;;;;;13.73;9.00;;;;;;;;;;5029701;28;20026;-54
2024/03/01 01:59:05;;;;;;;13.65;8.90;;;;;;;;;;5031250;28;20048;-57
2024/03/01 02:01:31;;;;;;;13.60;8.55;;;;;;;;;;5033118;28;20439;-57
2024/03/01 02:03:57;;;;;;;13.65;8.88;;;;;;;;;;5031770;28;20071;-57
2024/03/01 02:06:23;;;;;;;13.60;8.60;;;;;;;;;;5033537;28;20060;-57
2024/03/01 02:08:49;;;;;;;13.63;8.75;;;;;;;;;;5033392;28;20083;-57
2024/03/01 02:11:15;;;;;;;13.48;8.45;;;;;;;;;;5033168;28;20117;-55
2024/03/01 02:13:41;;;;;;;14.00;9.73;;;;;;;;;;5031320;28;20032;-55
2024/03/01 02:16:07;;;;;;;13.60;8.70;;;;;;;;;;5033323;28;20072;-54
2024/03/01 02:18:33;;;;;;;13.63;8.80;;;;;;;;;;5032661;28;20053;-57
2024/03/01 02:21:06;;;;;;;13.50;8.27;;;;;;;;;;5032743;28;20132;-58
2024/03/01 02:23:32;;;;;;;13.52;8.45;;;;;;;;;;5032414;28;20032;-51
2024/03/01 02:25:59;;;;;;;13.48;8.30;;;;;;;;;;5033278;28;20109;-56
2024/03/01 02:28:25;;;;;;;13.50;8.40;;;;;;;;;;5032987;28;20460;-52
2024/03/01 02:30:53;;;;;;;13.55;8.40;;;;;;;;;;5032827;28;20021;-56
2024/03/01 02:33:20;;;;;;;13.48;8.32;;;;;;;;;;5031947;28;20524;-58
2024/03/01 02:35:46;;;;;;;13.48;8.27;;;;;;;;;;5032822;28;20026;-53
2024/03/01 02:38:12;;;;;;;13.50;8.30;;;;;;;;;;5032818;28;20037;-57
2024/03/01 02:40:38;;;;;;;13.55;8.48;;;;;;;;;;5032770;28;20121;-52
2024/03/01 02:43:06;;;;;;;13.52;8.40;;;;;;;;;;5031961;28;20538;-58
2024/03/01 02:45:32;;;;;;;13.38;8.07;;;;;;;;;;5033275;28;20072;-56
2024/03/01 02:47:58;;;;;;;13.57;8.60;;;;;;;;;;5033410;28;20026;-55
2024/03/01 02:50:24;;;;;;;13.52;8.45;;;;;;;;;;5031815;28;20044;-53
2024/03/01 02:52:50;;;;;;;14.45;10.27;;;;;;;;;;5031835;28;20033;-54
2024/03/01 02:55:20;;;;;;;13.60;8.70;;;;;;;;;;5032706;28;20061;-59
2024/03/01 02:57:50;;;;;;;13.65;8.90;;;;;;;;;;5032642;28;20029;-55
2024/03/01 03:00:16;;;;;;;13.88;9.60;;;;;;;;;;5032569;28;20018;-51
2024/03/01 03:02:43;;;;;;;13.60;8.80;;;;;;;;;;5030480;28;20025;-56
2024/03/01 03:05:09;;;;;;;13.65;8.88;;;;;;;;;;5032498;28;20044;-57
2024/03/01 03:07:35;;;;;;;13.75;9.10;;;;;;;;;;5032284;28;20029;-56
2024/03/01 03:10:01;;;;;;;16.65;9.70;;;;;;;;;;5030889;28;20128;-57
2024/03/01 03:12:27;;;;;;;13.63;8.75;;;;;;;;;;5029975;28;20032;-54
2024/03/01 03:14:53;;;;;;;13.80;9.10;;;;;;;;;;5032168;28;20128;-54
2024/03/01 03:17:19;;;;;;;13.68;8.98;;;;;;;;;;5030738;28;20539;-58
2024/03/01 03:19:46;;;;;;;13.75;9.00;;;;;;;;;;5030670;28;20033;-58
2024/03/01 03:22:12;;;;;;;13.68;8.98;;;;;;;;;;5031127;28;20109;-57
2024/03/01 03:24:38;;;;;;;13.63;8.90;;;;;;;;;;5031982;28;20527;-52
2024/03/01 03:27:05;;;;;;;13.90;9.38;;;;;;;;;;5031833;28;20052;-55
2024/03/01 03:29:31;;;;;;;14.00;9.45;;;;;;;;;;5031860;28;20614;-57
2024/03/01 03:31:57;;;;;;;13.55;8.75;;;;;;;;;;5031186;28;20044;-52
2024/03/01 03:34:23;;;;;;;13.60;8.80;;;;;;;;;;5031741;28;20112;-51
2024/03/01 03:36:49;;;;;;;13.57;8.70;;;;;;;;;;5030177;28;20399;-56
2024/03/01 03:39:15;;;;;;;13.90;9.48;;;;;;;;;;5030342;28;20045;-55
2024/03/01 03:41:42;;;;;;;13.60;8.90;;;;;;;;;;5029970;28;20025;-53
2024/03/01 03:44:08;;;;;;;13.70;9.00;;;;;;;;;;5029850;28;20108;-57
2024/03/01 03:46:35;;;;;;;13.85;9.25;;;;;;;;;;5031356;28;20482;-53
2024/03/01 03:49:01;;;;;;;13.85;9.30;;;;;;;;;;5031527;28;20096;-55
2024/03/01 03:51:28;;;;;;;13.68;8.93;;;;;;;;;;5030935;28;20036;-53
2024/03/01 03:53:55;;;;;;;13.77;9.20;;;;;;;;;;5030952;28;20108;-56
2024/03/01 03:56:21;;;;;;;13.82;9.27;;;;;;;;;;5030043;28;20229;-58
2024/03/01 03:58:51;;;;;;;13.65;8.88;;;;;;;;;;5031265;28;20148;-57
2024/03/01 04:01:21;;;;;;;13.70;9.00;;;;;;;;;;5030940;28;20049;-57
2024/03/01 04:03:47;;;;;;;15.02;10.73;;;;;;;;;;5030580;28;20022;-53
2024/03/01 04:06:13;;;;;;;13.75;9.10;;;;;;;;;;5031141;28;20033;-55
2024/03/01 04:08:39;;;;;;;14.32;10.00;;;;;;;;;;5031106;28;20022;-57
2024/03/01 04:11:06;;;;;;;13.85;9.35;;;;;;;;;;5030818;28;20026;-57
2024/03/01 04:13:38;;;;;;;13.77;9.20;;;;;;;;;;5030457;28;20029;-60
2024/03/01 04:16:06;;;;;;;13.80;9.20;;;;;;;;;;5031401;28;20018;-52
2024/03/01 04:18:32;;;;;;;18.60;9.60;;;;;;;;;;5029737;28;20155;-53
2024/03/01 04:21:00;;;;;;;13.80;9.20;;;;;;;;;;5029366;28;20442;-50
2024/03/01 04:23:26;;;;;;;13.80;9.20;;;;;;;;;;5029022;28;20471;-54
2024/03/01 04:25:53;;;;;;;14.85;10.65;;;;;;;;;;5030959;28;20030;-55
2024/03/01 04:28:19;;;;;;;16.38;11.57;;;;;;;;;;5030929;28;20472;-56
2024/03/01 04:30:45;;;;;;;14.00;9.75;;;;;;;;;;5030835;28;20029;-59
2024/03/01 04:33:12;;;;;;;14.20;10.50;;;;;;;;;;5028308;28;20039;-59
2024/03/01 04:35:38;;;;;;;13.88;9.32;;;;;;;;;;5030287;28;20025;-56
2024/03/01 04:38:04;;;;;;;14.73;9.77;;;;;;;;;;5029155;28;20034;-57
2024/03/01 04:40:30;;;;;;;13.75;9.10;;;;;;;;;;5030419;28;20024;-54
2024/03/01 04:42:56;;;;;;;13.73;9.00;;;;;;;;;;5029649;28;20108;-56
2024/03/01 04:45:22;;;;;;;13.77;9.18;;;;;;;;;;5030252;28;20044;-56
2024/03/01 04:47:49;;;;;;;13.68;9.00;;;;;;;;;;5030206;28;20026;-55
2024/03/01 04:50:15;;;;;;;13.70;9.00;;;;;;;;;;5029072;28;20083;-57
2024/03/01 04:52:41;;;;;;;13.68;9.00;;;;;;;;;;5029563;28;20032;-57
2024/03/01 04:55:09;;;;;;;13.70;9.00;;;;;;;;;;5028978;28;20018;-58
2024/03/01 04:57:35;;;;;;;13.70;9.00;;;;;;;;;;5030057;28;20387;-55
2024/03/01 05:00:01;;;;;;;14.57;9.60;;;;;;;;;;5029956;28;20022;-54
2024/03/01 05:02:28;;;;;;;13.63;8.82;;;;;;;;;;5029325;28;20032;-54
2024/03/01 05:04:56;;;;;;;13.63;8.98;;;;;;;;;;5030133;28;20028;-58
2024/03/01 05:07:22;;;;;;;13.82;9.25;;;;;;;;;;5028762;28;20624;-55
2024/03/01 05:09:48;;;;;;;13.80;9.30;;;;;;;;;;5029842;28;20029;-53
2024/03/01 05:12:14;;;;;;;13.88;9.38;;;;;;;;;;5028984;28;20498;-56
2024/03/01 05:14:41;;;;;;;14.32;10.02;;;;;;;;;;5029942;28;20022;-57
2024/03/01 05:17:11;;;;;;;13.90;9.50;;;;;;;;;;5029774;28;20028;-54
2024/03/01 05:19:39;;;;;;;13.90;9.45;;;;;;;;;;5030037;28;20021;-56
2024/03/01 05:22:12;;;;;;;13.85;9.30;;;;;;;;;;5027989;28;20033;-57
2024/03/01 05:24:38;;;;;;;13.80;9.27;;;;;;;;;;5030169;28;20028;-57
2024/03/01 05:27:11;;;;;;;13.82;9.27;;;;;;;;;;5030239;28;20463;-54
2024/03/01 05:29:37;;;;;;;13.90;9.50;;;;;;;;;;5030143;28;20033;-53
2024/03/01 05:32:03;;;;;;;13.82;9.27;;;;;;;;;;5029048;28;20036;-49
2024/03/01 05:34:30;;;;;;;13.85;9.40;;;;;;;;;;5030580;28;20108;-56
2024/03/01 05:36:57;;;;;;;13.77;9.27;;;;;;;;;;5033909;28;20022;-52
2024/03/01 05:39:23;;;;;;;13.85;9.50;;;;;;;;;;5033945;28;20105;-54
2024/03/01 05:41:48;;;;;;;13.80;9.25;;;;;;;;;;5033466;28;20029;-57
2024/03/01 05:44:16;;;;;;;13.65;8.95;;;;;;;;;;5034118;28;20038;-55
2024/03/01 05:46:42;;;;;;;13.77;9.20;;;;;;;;;;5038750;28;20096;-56
2024/03/01 05:49:11;;;;;;;13.80;9.23;;;;;;;;;;5039857;28;20022;-58
2024/03/01 05:51:37;;;;;;;13.90;9.50;;;;;;;;;;5038970;28;20081;-58
2024/03/01 05:54:03;;;;;;;13.93;9.48;;;;;;;;;;5035335;28;20105;-57
2024/03/01 05:56:30;;;;;;;13.90;9.60;;;;;;;;;;5034824;28;20111;-46
2024/03/01 05:58:56;;;;;;;13.95;9.70;;;;;;;;;;5034444;28;20446;-57
2024/03/01 06:01:23;;;;;;;13.93;9.57;;;;;;;;;;5033231;28;20075;-58
2024/03/01 06:03:49;;;;;;;13.90;9.60;;;;;;;;;;5032500;28;20034;-57
2024/03/01 06:06:18;;;;;;;13.95;9.82;;;;;;;;;;5033253;28;20061;-53
2024/03/01 06:08:44;;;;;;;13.95;9.70;;;;;;;;;;5033227;28;20022;-51
2024/03/01 06:11:11;;;;;;;13.98;9.75;;;;;;;;;;5031660;28;20033;-57
2024/03/01 06:13:38;;;;;;;13.90;9.50;;;;;;;;;;5032163;28;20119;-55
2024/03/01 06:16:04;;;;;;;14.00;9.90;;;;;;;;;;5032866;28;20029;-54
2024/03/01 06:18:30;;;;;;;13.90;9.60;;;;;;;;;;5032925;28;20674;-51
2024/03/01 06:20:56;;;;;;;17.90;11.45;;;;;;;;;;5032699;28;20150;-52
2024/03/01 06:23:22;;;;;;;13.90;9.50;;;;;;;;;;5030928;28;20561;-60
2024/03/01 06:25:48;;;;;;;13.82;9.35;;;;;;;;;;5032236;28;20068;-55
2024/03/01 06:28:14;;;;;;;13.90;9.70;;;;;;;;;;5034290;28;20167;-56
2024/03/01 06:30:41;;;;;;;13.80;9.23;;;;;;;;;;5033032;28;20643;-57
2024/03/01 06:33:07;;;;;;;13.88;9.50;;;;;;;;;;5062678;22;20040;-53
2024/03/01 06:35:33;;;;;;;13.90;9.50;;;;;;;;;;5071573;28;20500;-53
2024/03/01 06:37:59;;;;;;;14.57;10.50;;;;;;;;;;5071170;28;20016;-53
2024/03/01 06:40:25;;;;;;;14.07;9.77;;;;;;;;;;5071315;28;20031;-51
2024/03/01 06:42:51;;;;;;;13.88;9.45;;;;;;;;;;5070283;28;20148;-51
2024/03/01 06:45:17;;;;;;;16.15;11.07;;;;;;;;;;5070507;28;20024;-57
2024/03/01 06:47:43;;;;;;;14.00;9.80;;;;;;;;;;5071153;28;20020;-56
2024/03/01 06:50:09;;;;;;;13.80;9.27;;;;;;;;;;5071459;28;20063;-57
2024/03/01 06:52:35;;;;;;;13.88;9.52;;;;;;;;;;5085962;28;20083;-57
2024/03/01 06:55:01;;;;;;;13.90;9.50;;;;;;;;;;5086922;28;20024;-56
2024/03/01 06:57:27;;;;;;;13.95;9.60;;;;;;;;;;5086642;28;20024;-54
2024/03/01 06:59:53;;;;;;;13.80;9.25;;;;;;;;;;5071543;28;20016;-58
2024/03/01 07:02:19;;;;;;;13.90;9.63;;;;;;;;;;5070688;28;20070;-53
2024/03/01 07:04:45;;;;;;;13.85;9.45;;;;;;;;;;5071380;28;20033;-57
2024/03/01 07:07:16;;;;;;;13.88;9.50;;;;;;;;;;5071209;28;20548;-57
2024/03/01 07:09:42;;;;;;;13.90;9.60;;;;;;;;;;5071098;28;20058;-57
2024/03/01 07:12:08;;;;;;;13.90;9.50;;;;;;;;;;5069889;28;20028;-57
2024/03/01 07:14:34;;;;;;;18.15;14.27;;;;;;;;;;5070530;28;20024;-58
2024/03/01 07:17:00;;;;;;;13.88;9.65;;;;;;;;;;5069486;28;20485;-57
2024/03/01 07:19:26;;;;;;;13.82;9.40;;;;;;;;;;5071279;28;20021;-56
2024/03/01 07:21:52;;;;;;;14.20;10.35;;;;;;;;;;5070831;28;20051;-54
2024/03/01 07:24:18;;;;;;;13.90;9.50;;;;;;;;;;5070616;28;20024;-54
2024/03/01 07:26:44;;;;;;;13.73;9.20;;;;;;;;;;5070889;28;20032;-56
2024/03/01 07:29:10;;;;;;;18.13;15.88;;;;;;;;;;5070537;28;20028;-57
2024/03/01 07:31:36;;;;;;;14.10;9.40;;;;;;;;;;5061401;28;20395;-55
2024/03/01 07:34:02;;;;;;;13.82;9.35;;;;;;;;;;5063211;28;20037;-56
2024/03/01 07:36:28;;;;;;;13.85;9.27;;;;;;;;;;5048058;28;20104;-57
2024/03/01 07:38:54;;;;;;;13.88;9.55;;;;;;;;;;5056082;28;20089;-55
2024/03/01 07:41:21;;;;;;;13.80;9.35;;;;;;;;;;5069921;28;20079;-56
2024/03/01 07:43:47;;;;;;;17.30;9.85;;;;;;;;;;5069284;28;20031;-52
2024/03/01 07:46:13;;;;;;;13.75;9.13;;;;;;;;;;5070137;28;20028;-53
2024/03/01 07:48:39;;;;;;;13.75;9.10;;;;;;;;;;5053658;28;20040;-56
2024/03/01 07:51:05;;;;;;;14.73;9.77;;;;;;;;;;5050108;28;20091;-57
2024/03/01 07:53:31;;;;;;;13.65;8.90;;;;;;;;;;5049611;28;20037;-56
2024/03/01 07:55:58;;;;;;;13.77;9.18;;;;;;;;;;5048935;28;20021;-55
2024/03/01 07:58:24;;;;;;;13.90;9.50;;;;;;;;;;5050305;28;20630;-56
2024/03/01 08:00:50;;;;;;;13.88;9.50;;;;;;;;;;5050407;28;20031;-54
2024/03/01 08:03:16;;;;;;;14.95;10.60;;;;;;;;;;5049887;28;20774;-52
2024/03/01 08:05:42;;;;;;;13.65;8.95;;;;;;;;;;5063906;28;20060;-52
2024/03/01 08:08:09;;;;;;;14.40;9.95;;;;;;;;;;5070159;28;20692;-55
2024/03/01 08:10:38;;;;;;;13.93;9.52;;;;;;;;;;5069993;28;20036;-56
2024/03/01 08:13:04;;;;;;;13.70;9.10;;;;;;;;;;5068023;28;20025;-58
2024/03/01 08:15:35;;;;;;;18.90;11.10;;;;;;;;;;5069337;28;20372;-56
2024/03/01 08:18:21;;;;;;;14.27;9.45;;;;;;;;;;5070044;28;20024;-55
2024/03/01 08:20:55;;;;;;;13.80;9.30;;;;;;;;;;5069619;28;20062;-52
2024/03/01 08:23:21;;;;;;;14.65;10.15;;;;;;;;;;5069368;28;20021;-55
2024/03/01 08:25:47;;;;;;;14.65;10.00;;;;;;;;;;5069904;28;20070;-58
2024/03/01 08:28:16;;;;;;;14.45;10.57;;;;;;;;;;5068207;28;20024;-54
2024/03/01 08:30:46;;;;;;;14.20;9.93;;;;;;;;;;5069571;28;20035;-55
2024/03/01 08:33:18;;;;;;;14.00;9.80;;;;;;;;;;5068317;28;20036;-53
2024/03/01 08:35:45;;;;;;;15.65;10.30;;;;;;;;;;5069489;28;20024;-55
2024/03/01 08:38:30;;;;;;;13.90;9.40;;;;;;;;;;5069675;28;20567;-54
2024/03/01 08:40:57;;;;;;;15.38;10.80;;;;;;;;;;5068038;28;20154;-54
2024/03/01 08:43:23;;;;;;;14.48;10.07;;;;;;;;;;5067428;28;20039;-56
2024/03/01 08:45:49;;;;;;;13.90;9.40;;;;;;;;;;5068235;28;20020;-56
2024/03/01 08:48:21;;;;;;;15.55;10.75;;;;;;;;;;5069307;28;20084;-54
2024/03/01 08:50:51;;;;;;;16.45;11.55;;;;;;;;;;5069186;28;20032;-55
2024/03/01 08:53:47;;;;;;;14.48;11.02;;;;;;;;;;5068471;28;20107;-53
2024/03/01 08:56:20;;;;;;;17.73;13.40;;;;;;;;;;5067801;28;20135;-54
2024/03/01 08:58:46;;;;;;;14.63;10.30;;;;;;;;;;5069203;28;20398;-55
2024/03/01 09:01:31;;;;;;;14.40;9.63;;;;;;;;;;5068978;28;20291;-57
2024/03/01 09:04:06;;;;;;;13.68;9.15;;;;;;;;;;5068674;28;20081;-53
2024/03/01 09:06:32;;;;;;;14.20;9.30;;;;;;;;;;5069429;28;20024;-57
2024/03/01 09:08:58;;;;;;;14.10;9.52;;;;;;;;;;5069208;28;20039;-56
2024/03/01 09:11:24;;;;;;;14.00;9.70;;;;;;;;;;5068965;28;20064;-56
2024/03/01 09:13:50;;;;;;;25.00;21.45;;;;;;;;;;5069177;28;20078;-59
2024/03/01 09:16:20;;;;;;;28.17;15.27;;;;;;;;;;5069256;28;20099;-66
2024/03/01 09:18:49;;;;;;;14.02;9.73;;;;;;;;;;5068555;28;20032;-59
2024/03/01 09:21:36;;;;;;;14.18;9.98;;;;;;;;;;5068646;28;20031;-55
2024/03/01 09:24:03;;;;;;;14.10;9.90;;;;;;;;;;5055460;28;20041;-56
2024/03/01 09:26:30;;;;;;;14.65;10.05;;;;;;;;;;5067726;28;20071;-55
2024/03/01 09:29:03;;;;;;;14.30;10.00;;;;;;;;;;5069237;28;20128;-54
2024/03/01 09:31:32;;;;;;;13.80;9.27;;;;;;;;;;5068166;28;20433;-55
2024/03/01 09:34:02;;;;;;;13.63;8.93;;;;;;;;;;5068461;28;20044;-56
2024/03/01 09:36:30;;;;;;;15.20;10.13;;;;;;;;;;5069233;28;20027;-55
2024/03/01 09:39:04;;;;;;;13.65;8.98;;;;;;;;;;5068898;28;20028;-52
2024/03/01 09:41:30;;;;;;;13.57;8.73;;;;;;;;;;5068687;28;20099;-57
2024/03/01 09:44:14;;;;;;;13.80;9.40;;;;;;;;;;5068368;28;20111;-59
2024/03/01 09:46:53;;;;;;;13.80;9.30;;;;;;;;;;5069286;28;20024;-53
2024/03/01 09:49:37;;;;;;;13.77;9.23;;;;;;;;;;5069183;28;20028;-53
2024/03/01 09:52:23;;;;;;;13.90;9.48;;;;;;;;;;5067885;28;20094;-56
2024/03/01 09:54:55;;;;;;;13.90;9.50;;;;;;;;;;5067517;28;20094;-55
2024/03/01 09:57:29;;;;;;;13.90;9.60;;;;;;;;;;5068547;28;20032;-57
2024/03/01 10:00:09;;;;;;;13.80;9.40;;;;;;;;;;5068698;28;20043;-54
2024/03/01 10:02:53;;;;;;;16.25;10.23;;;;;;;;;;5068023;28;20607;-54
2024/03/01 10:05:19;;;;;;;13.80;9.20;;;;;;;;;;5067936;28;20040;-55
2024/03/01 10:07:45;;;;;;;14.27;10.15;;;;;;;;;;5068414;28;20036;-54
2024/03/01 10:10:29;;;;;;;16.77;11.00;;;;;;;;;;5068761;28;20542;-57
2024/03/01 10:13:00;;;;;;;13.95;9.73;;;;;;;;;;5067422;28;20148;-57
2024/03/01 10:15:34;;;;;;;14.48;9.55;;;;;;;;;;5068331;28;20473;-55
2024/03/01 10:18:00;;;;;;;16.83;10.25;;;;;;;;;;5068425;28;20040;-55
2024/03/01 10:20:37;;;;;;;14.23;9.43;;;;;;;;;;5070006;28;20151;-53
2024/03/01 10:23:21;;;;;;;13.68;8.93;;;;;;;;;;5071356;28;20112;-55
2024/03/01 10:26:04;;;;;;;13.73;9.00;;;;;;;;;;5072053;28;20025;-55
2024/03/01 10:28:49;;;;;;;15.15;10.73;;;;;;;;;;5072051;28;20594;-55
2024/03/01 10:31:27;;;;;;;13.95;9.32;;;;;;;;;;5072026;28;20063;-56
2024/03/01 10:33:57;;;;;;;13.52;8.40;;;;;;;;;;5070205;28;20038;-55
2024/03/01 10:36:42;;;;;;;14.23;9.68;;;;;;;;;;5071620;28;20052;-58
2024/03/01 10:39:31;;;;;;;14.18;9.02;;;;;;;;;;5071938;28;20058;-55
2024/03/01 10:42:40;;;;;;;15.05;11.05;;;;;;;;;;5063317;28;20037;-57
2024/03/01 10:45:11;;;;;;;14.52;10.65;;;;;;;;;;4989747;28;20026;-55
2024/03/01 10:47:37;;;;;;;13.63;9.00;;;;;;;;;;4989263;28;20030;-55
2024/03/01 10:50:22;;;;;;;16.48;9.55;;;;;;;;;;5033698;28;20048;-57
2024/03/01 10:52:54;;;;;;;13.60;8.70;;;;;;;;;;5070951;28;20025;-56
2024/03/01 10:55:24;;;;;;;13.93;9.15;;;;;;;;;;5071671;28;20024;-57
2024/03/01 10:57:50;;;;;;;14.00;9.30;;;;;;;;;;5071607;28;20439;-53
2024/03/01 11:00:18;;;;;;;13.70;9.10;;;;;;;;;;5071537;28;20025;-51
2024/03/01 11:02:51;;;;;;;13.70;9.00;;;;;;;;;;5070739;28;20400;-55
2024/03/01 11:05:26;;;;;;;14.70;10.52;;;;;;;;;;5069743;28;20047;-54
2024/03/01 11:08:11;;;;;;;14.30;9.30;;;;;;;;;;5071370;28;20033;-58
2024/03/01 11:10:57;;;;;;;13.90;9.02;;;;;;;;;;5070991;28;20028;-54
2024/03/01 11:13:25;;;;;;;13.65;9.02;;;;;;;;;;5065778;28;20023;-57
2024/03/01 11:15:52;;;;;;;14.00;9.00;;;;;;;;;;5069151;28;20017;-57
2024/03/01 11:18:20;;;;;;;13.70;9.18;;;;;;;;;;5065474;28;20031;-61
2024/03/01 11:20:50;;;;;;;14.38;9.25;;;;;;;;;;5068796;28;20086;-56
2024/03/01 11:23:16;;;;;;;14.85;9.40;;;;;;;;;;5069865;28;20040;-54
2024/03/01 11:25:56;;;;;;;16.58;11.15;;;;;;;;;;5070942;28;20112;-56
2024/03/01 11:28:24;;;;;;;13.65;8.80;;;;;;;;;;5070736;28;20386;-58
2024/03/01 11:30:52;;;;;;;15.35;10.30;;;;;;;;;;5061866;28;20048;-59
2024/03/01 11:33:21;;;;;;;13.70;9.02;;;;;;;;;;5065657;28;20036;-58
2024/03/01 11:35:47;;;;;;;13.68;8.95;;;;;;;;;;5070191;28;20017;-58
2024/03/01 11:38:25;;;;;;;13.68;8.98;;;;;;;;;;5070702;28;20397;-55
2024/03/01 11:41:10;;;;;;;13.60;8.75;;;;;;;;;;5069048;28;20123;-56
2024/03/01 11:43:55;;;;;;;13.70;9.10;;;;;;;;;;5067223;28;20115;-56
2024/03/01 11:46:39;;;;;;;13.85;9.48;;;;;;;;;;5059008;28;20516;-53
2024/03/01 11:49:11;;;;;;;13.88;9.13;;;;;;;;;;5049901;28;20029;-56
2024/03/01 11:51:42;;;;;;;13.63;8.80;;;;;;;;;;5047778;28;20121;-57
2024/03/01 11:54:10;;;;;;;14.20;10.23;;;;;;;;;;5047477;28;20419;-53
2024/03/01 11:56:43;;;;;;;13.50;8.40;;;;;;;;;;5048073;28;20522;-57
2024/03/01 11:59:21;;;;;;;13.70;8.95;;;;;;;;;;5046876;28;20025;-55
2024/03/01 12:02:02;;;;;;;13.73;9.07;;;;;;;;;;5046728;28;20044;-57
2024/03/01 12:04:36;;;;;;;13.80;9.20;;;;;;;;;;5047330;28;20036;-57
2024/03/01 12:07:20;;;;;;;13.88;9.30;;;;;;;;;;5049124;28;20090;-55
2024/03/01 12:09:46;;;;;;;13.75;9.15;;;;;;;;;;5049338;28;20133;-58
2024/03/01 12:12:32;;;;;;;13.80;9.27;;;;;;;;;;5049062;28;20020;-52
2024/03/01 12:14:59;;;;;;;13.90;9.45;;;;;;;;;;5049621;28;20367;-57
2024/03/01 12:17:34;;;;;;;14.35;9.75;;;;;;;;;;5050154;28;20514;-56
2024/03/01 12:20:08;;;;;;;13.82;9.20;;;;;;;;;;5049682;28;20375;-53
2024/03/01 12:22:44;;;;;;;13.77;9.20;;;;;;;;;;5048851;28;20080;-56
2024/03/01 12:25:10;;;;;;;13.65;9.02;;;;;;;;;;5049636;28;20495;-55
2024/03/01 12:28:08;;;;;;;13.77;9.20;;;;;;;;;;5049859;28;20650;-53
2024/03/01 12:30:36;;;;;;;13.80;9.23;;;;;;;;;;5037464;28;20402;-57
2024/03/01 12:33:10;;;;;;;13.80;9.20;;;;;;;;;;5077592;28;20130;-56
2024/03/01 12:35:37;;;;;;;13.40;8.18;;;;;;;;;;5069109;28;20104;-56
2024/03/01 12:38:08;;;;;;;13.40;8.23;;;;;;;;;;5069254;28;20020;-54
2024/03/01 12:40:53;;;;;;;13.52;8.32;;;;;;;;;;5069184;28;20020;-58
2024/03/01 12:43:22;;;;;;;13.57;8.73;;;;;;;;;;5075982;28;20024;-57
2024/03/01 12:46:01;;;;;;;13.60;8.60;;;;;;;;;;5069527;28;20060;-55
2024/03/01 12:48:46;;;;;;;13.52;8.52;;;;;;;;;;5069369;28;20498;-51
2024/03/01 12:51:26;;;;;;;13.60;8.60;;;;;;;;;;5069134;28;20032;-58
2024/03/01 12:54:07;;;;;;;13.50;8.35;;;;;;;;;;5067471;28;20538;-56
2024/03/01 12:56:52;;;;;;;13.43;8.20;;;;;;;;;;5069568;28;20028;-56
2024/03/01 12:59:22;;;;;;;13.48;8.35;;;;;;;;;;5068777;28;20093;-54
2024/03/01 13:01:57;;;;;;;13.57;8.60;;;;;;;;;;5069233;28;20586;-53
2024/03/01 13:04:50;;;;;;;13.57;8.60;;;;;;;;;;5068691;28;20561;-56
2024/03/01 13:07:17;;;;;;;13.43;8.30;;;;;;;;;;5065424;28;20486;-54
2024/03/01 13:09:44;;;;;;;13.50;8.40;;;;;;;;;;5070583;28;20069;-55
2024/03/01 13:12:15;;;;;;;13.68;8.88;;;;;;;;;;5069103;28;20084;-56
2024/03/01 13:14:56;;;;;;;13.60;8.70;;;;;;;;;;5059569;28;20045;-56
2024/03/01 13:17:27;;;;;;;13.85;9.30;;;;;;;;;;5063199;28;20048;-56
2024/03/01 13:20:10;;;;;;;14.80;9.50;;;;;;;;;;5069036;28;20103;-59
2024/03/01 13:22:39;;;;;;;13.80;9.15;;;;;;;;;;5068336;28;20505;-56
2024/03/01 13:25:17;;;;;;;13.65;8.80;;;;;;;;;;5064770;28;20102;-57
2024/03/01 13:28:04;;;;;;;13.55;8.40;;;;;;;;;;5057167;28;20398;-57
2024/03/01 13:30:33;;;;;;;21.02;9.93;;;;;;;;;;5056982;28;20041;-54
2024/03/01 13:33:17;;;;;;;13.57;8.77;;;;;;;;;;5067152;28;20186;-54
2024/03/01 13:35:45;;;;;;;13.60;8.77;;;;;;;;;;5068847;28;20016;-52
2024/03/01 13:38:18;;;;;;;13.65;8.70;;;;;;;;;;5068880;28;20028;-56
2024/03/01 13:40:50;;;;;;;13.65;8.82;;;;;;;;;;5069037;28;20051;-55
2024/03/01 13:43:19;;;;;;;13.70;9.10;;;;;;;;;;5067897;28;20328;-55
2024/03/01 13:45:47;;;;;;;13.90;9.63;;;;;;;;;;5068531;28;20025;-56
2024/03/01 13:48:34;;;;;;;14.05;9.50;;;;;;;;;;5068297;28;20025;-56
2024/03/01 13:51:01;;;;;;;14.18;9.95;;;;;;;;;;5068566;28;20108;-55
2024/03/01 13:53:27;;;;;;;13.88;9.50;;;;;;;;;;5053447;28;20317;-54
2024/03/01 13:55:55;;;;;;;13.93;9.70;;;;;;;;;;5065990;28;20077;-56
2024/03/01 13:58:21;;;;;;;13.77;9.20;;;;;;;;;;5071870;28;20069;-53
2024/03/01 14:00:52;;;;;;;13.82;9.32;;;;;;;;;;5071919;28;20032;-53
2024/03/01 14:03:19;;;;;;;13.90;9.60;;;;;;;;;;5071831;28;20025;-57
2024/03/01 14:05:46;;;;;;;13.80;9.23;;;;;;;;;;5072070;28;20044;-59
2024/03/01 14:08:20;;;;;;;13.90;9.60;;;;;;;;;;5071946;28;20371;-55
2024/03/01 14:10:48;;;;;;;14.20;9.70;;;;;;;;;;5070856;28;20025;-56
2024/03/01 14:13:14;;;;;;;13.90;9.50;;;;;;;;;;5071425;28;20092;-58
2024/03/01 14:15:40;;;;;;;13.82;9.32;;;;;;;;;;5071512;28;20021;-54
2024/03/01 14:18:06;;;;;;;14.40;9.80;;;;;;;;;;5071522;28;20054;-58
2024/03/01 14:20:32;;;;;;;13.85;9.45;;;;;;;;;;5071983;28;20052;-54
2024/03/01 14:22:58;;;;;;;13.90;9.55;;;;;;;;;;5070958;28;20067;-58
2024/03/01 14:25:24;;;;;;;13.75;9.27;;;;;;;;;;5071056;28;20031;-56
2024/03/01 14:27:57;;;;;;;14.02;9.95;;;;;;;;;;5070836;28;20585;-58
2024/03/01 14:30:25;;;;;;;14.07;10.10;;;;;;;;;;5072055;28;20024;-53
2024/03/01 14:32:53;;;;;;;14.00;9.85;;;;;;;;;;5070016;28;20495;-55
2024/03/01 14:35:20;;;;;;;14.05;10.07;;;;;;;;;;5071966;28;20024;-55
2024/03/01 14:37:47;;;;;;;14.00;9.85;;;;;;;;;;5072130;28;20032;-58
2024/03/01 14:40:14;;;;;;;14.02;9.93;;;;;;;;;;5072154;28;20077;-57
2024/03/01 14:42:40;;;;;;;14.10;10.18;;;;;;;;;;5071026;28;20024;-53